Time;durP1;ratioP1;P1;durP2;ratioP2;P2;SDS_P1;SDS_P2;PMS_P1;PMS_P2;Temp;Humidity;BMP_temperature;BMP_pressure;BME280_temperature;BME280_humidity;BME280_pressure;Samples;Min_cycle;Max_cycle;Signal;HPM_P1;HPM_P2
2023/05/30 00:00:13;;;;;;;8.93;2.05;;;;;;;;;;5092634;28;20439;-69
2023/05/30 00:02:38;;;;;;;4.57;1.83;;;;;;;;;;5092281;28;20036;-72
2023/05/30 00:05:04;;;;;;;6.10;1.67;;;;;;;;;;5092586;28;20032;-71
2023/05/30 00:07:31;;;;;;;5.65;1.83;;;;;;;;;;5092419;28;20035;-72
2023/05/30 00:09:56;;;;;;;4.43;1.40;;;;;;;;;;5092598;28;20162;-71
2023/05/30 00:12:21;;;;;;;5.03;1.67;;;;;;;;;;5092356;28;20521;-71
2023/05/30 00:14:47;;;;;;;4.43;1.60;;;;;;;;;;5092329;28;20430;-71
2023/05/30 00:17:16;;;;;;;5.15;1.70;;;;;;;;;;5092181;28;20020;-71
2023/05/30 00:19:42;;;;;;;5.50;1.55;;;;;;;;;;5092385;28;20066;-68
2023/05/30 00:22:08;;;;;;;6.50;1.80;;;;;;;;;;5092310;28;20411;-63
2023/05/30 00:24:33;;;;;;;3.67;1.50;;;;;;;;;;5092273;28;20034;-70
2023/05/30 00:27:15;;;;;;;4.47;1.65;;;;;;;;;;5092177;28;20428;-70
2023/05/30 00:29:40;;;;;;;8.05;2.25;;;;;;;;;;5091409;28;20059;-69
2023/05/30 00:32:06;;;;;;;5.82;1.73;;;;;;;;;;5092099;28;20423;-71
2023/05/30 00:34:31;;;;;;;3.20;1.50;;;;;;;;;;5092287;28;20025;-64
2023/05/30 00:36:56;;;;;;;3.45;1.50;;;;;;;;;;5091918;28;20474;-71
2023/05/30 00:39:22;;;;;;;4.18;1.50;;;;;;;;;;5102842;28;20043;-70
2023/05/30 00:41:47;;;;;;;5.15;1.92;;;;;;;;;;5111262;28;20124;-72
2023/05/30 00:44:13;;;;;;;5.55;1.55;;;;;;;;;;5112556;28;20410;-70
2023/05/30 00:46:39;;;;;;;8.55;1.73;;;;;;;;;;5111851;28;20532;-70
2023/05/30 00:49:05;;;;;;;8.48;1.60;;;;;;;;;;5106654;28;20094;-72
2023/05/30 00:51:31;;;;;;;6.88;1.88;;;;;;;;;;5092112;28;20036;-71
2023/05/30 00:53:58;;;;;;;7.97;1.77;;;;;;;;;;5092048;28;20028;-72
2023/05/30 00:56:26;;;;;;;4.25;1.58;;;;;;;;;;5091960;28;20020;-71
2023/05/30 00:58:52;;;;;;;4.65;1.60;;;;;;;;;;5092020;28;20038;-70
2023/05/30 01:01:19;;;;;;;7.85;1.73;;;;;;;;;;5091655;28;20119;-71
2023/05/30 01:03:47;;;;;;;5.60;1.98;;;;;;;;;;5092817;28;20028;-72
2023/05/30 01:06:13;;;;;;;3.60;1.50;;;;;;;;;;5095840;28;20028;-71
2023/05/30 01:08:38;;;;;;;5.90;1.85;;;;;;;;;;5095657;28;20077;-70
2023/05/30 01:11:21;;;;;;;6.03;1.88;;;;;;;;;;5095807;28;20358;-70
2023/05/30 01:14:08;;;;;;;5.38;1.63;;;;;;;;;;5095636;28;20036;-71
2023/05/30 01:16:40;;;;;;;6.88;1.80;;;;;;;;;;5075083;28;20052;-71
2023/05/30 01:19:28;;;;;;;5.85;1.70;;;;;;;;;;5075287;28;20391;-71
2023/05/30 01:22:20;;;;;;;3.05;1.70;;;;;;;;;;5075172;28;20021;-68
2023/05/30 01:25:04;;;;;;;8.43;1.88;;;;;;;;;;5013201;28;20078;-70
2023/05/30 01:28:07;;;;;;;5.72;1.73;;;;;;;;;;5021037;28;20540;-67
2023/05/30 01:30:37;;;;;;;5.65;1.90;;;;;;;;;;5032706;28;20112;-71
2023/05/30 01:33:05;;;;;;;5.43;1.63;;;;;;;;;;5032973;28;20040;-67
2023/05/30 01:35:30;;;;;;;4.68;1.70;;;;;;;;;;5032957;28;20463;-68
2023/05/30 01:37:56;;;;;;;7.57;1.90;;;;;;;;;;5032822;28;20025;-68
2023/05/30 01:40:24;;;;;;;5.97;2.13;;;;;;;;;;5032745;28;20075;-70
2023/05/30 01:42:57;;;;;;;14.57;3.05;;;;;;;;;;5032801;28;20040;-70
2023/05/30 01:45:56;;;;;;;9.05;2.45;;;;;;;;;;5032612;28;20033;-69
2023/05/30 01:48:33;;;;;;;11.18;2.13;;;;;;;;;;5032638;28;20046;-70
2023/05/30 01:51:06;;;;;;;6.55;2.00;;;;;;;;;;5029003;28;20581;-71
2023/05/30 01:53:38;;;;;;;6.05;1.90;;;;;;;;;;5032509;28;20037;-69
2023/05/30 01:56:06;;;;;;;4.88;2.22;;;;;;;;;;5032570;28;20116;-67
2023/05/30 01:58:34;;;;;;;9.68;2.55;;;;;;;;;;5032216;28;20113;-66
2023/05/30 02:01:00;;;;;;;9.18;1.90;;;;;;;;;;5044199;28;20032;-67
2023/05/30 02:03:28;;;;;;;4.70;2.20;;;;;;;;;;5094611;28;20043;-70
2023/05/30 02:05:54;;;;;;;8.02;2.20;;;;;;;;;;5094696;28;20028;-69
2023/05/30 02:08:19;;;;;;;5.10;2.10;;;;;;;;;;5094478;28;20170;-72
2023/05/30 02:10:45;;;;;;;5.90;1.90;;;;;;;;;;5094598;28;20020;-68
2023/05/30 02:13:11;;;;;;;7.03;1.92;;;;;;;;;;5094232;28;20032;-72
2023/05/30 02:15:36;;;;;;;5.65;1.83;;;;;;;;;;5105990;28;20103;-69
2023/05/30 02:18:02;;;;;;;5.18;2.10;;;;;;;;;;5114761;28;20020;-71
2023/05/30 02:20:27;;;;;;;6.07;2.10;;;;;;;;;;5104005;28;20020;-71
2023/05/30 02:22:53;;;;;;;6.70;2.35;;;;;;;;;;5094450;28;20063;-70
2023/05/30 02:25:20;;;;;;;7.07;2.60;;;;;;;;;;5094293;28;20417;-70
2023/05/30 02:27:47;;;;;;;4.35;2.45;;;;;;;;;;5094012;28;20385;-71
2023/05/30 02:30:13;;;;;;;8.48;2.35;;;;;;;;;;5094359;28;20051;-69
2023/05/30 02:32:38;;;;;;;6.15;2.67;;;;;;;;;;5094002;28;20512;-71
2023/05/30 02:35:04;;;;;;;6.05;2.30;;;;;;;;;;5094056;28;20031;-72
2023/05/30 02:37:30;;;;;;;5.88;2.30;;;;;;;;;;5093976;28;20115;-71
2023/05/30 02:39:55;;;;;;;6.60;2.45;;;;;;;;;;5109658;28;20020;-72
2023/05/30 02:42:21;;;;;;;5.45;2.42;;;;;;;;;;5114063;28;20023;-69
2023/05/30 02:44:46;;;;;;;7.97;2.15;;;;;;;;;;5114362;28;20069;-70
2023/05/30 02:47:11;;;;;;;9.30;2.33;;;;;;;;;;5113994;28;20047;-69
2023/05/30 02:49:37;;;;;;;5.40;2.00;;;;;;;;;;5103802;28;20051;-70
2023/05/30 02:52:02;;;;;;;4.82;2.10;;;;;;;;;;5093742;28;20016;-72
2023/05/30 02:54:28;;;;;;;7.47;2.20;;;;;;;;;;5093745;28;20039;-73
2023/05/30 02:56:53;;;;;;;6.95;2.35;;;;;;;;;;5093398;28;20540;-72
2023/05/30 02:59:19;;;;;;;14.35;3.20;;;;;;;;;;5093716;28;20039;-71
2023/05/30 03:01:44;;;;;;;8.32;2.90;;;;;;;;;;5093655;28;20028;-72
2023/05/30 03:04:10;;;;;;;6.80;2.88;;;;;;;;;;5093670;28;20032;-71
2023/05/30 03:06:37;;;;;;;9.55;2.65;;;;;;;;;;5093330;28;20030;-71
2023/05/30 03:09:03;;;;;;;6.03;2.60;;;;;;;;;;5093591;28;20020;-72
2023/05/30 03:11:29;;;;;;;7.85;2.40;;;;;;;;;;5093203;28;20031;-71
2023/05/30 03:13:54;;;;;;;6.15;2.30;;;;;;;;;;5093354;28;20028;-70
2023/05/30 03:16:20;;;;;;;8.93;2.42;;;;;;;;;;5093053;28;20016;-70
2023/05/30 03:18:45;;;;;;;5.38;2.30;;;;;;;;;;5091926;28;20020;-71
2023/05/30 03:21:11;;;;;;;7.28;2.42;;;;;;;;;;5093339;28;20024;-72
2023/05/30 03:23:37;;;;;;;6.72;2.50;;;;;;;;;;5093067;28;20035;-72
2023/05/30 03:26:03;;;;;;;11.43;3.03;;;;;;;;;;5092855;28;20024;-72
2023/05/30 03:28:29;;;;;;;6.00;2.28;;;;;;;;;;5092880;28;20020;-69
2023/05/30 03:30:57;;;;;;;9.95;2.50;;;;;;;;;;5093090;28;20389;-66
2023/05/30 03:33:23;;;;;;;14.27;3.75;;;;;;;;;;5093127;28;20416;-72
2023/05/30 03:35:49;;;;;;;11.63;2.95;;;;;;;;;;5092824;28;20046;-70
2023/05/30 03:38:15;;;;;;;20.42;3.92;;;;;;;;;;5094226;28;20028;-72
2023/05/30 03:40:40;;;;;;;10.23;2.30;;;;;;;;;;5112648;28;20039;-69
2023/05/30 03:43:06;;;;;;;8.25;2.53;;;;;;;;;;5113189;28;20051;-72
2023/05/30 03:45:31;;;;;;;9.30;2.60;;;;;;;;;;5113187;28;20028;-66
2023/05/30 03:47:57;;;;;;;16.85;2.47;;;;;;;;;;5112902;28;20076;-72
2023/05/30 03:50:23;;;;;;;11.93;2.45;;;;;;;;;;5096014;28;20125;-71
2023/05/30 03:52:48;;;;;;;9.23;2.55;;;;;;;;;;5092630;28;20122;-71
2023/05/30 03:55:14;;;;;;;13.18;2.90;;;;;;;;;;5092262;28;20089;-71
2023/05/30 03:57:40;;;;;;;11.07;2.80;;;;;;;;;;5092670;28;20024;-72
2023/05/30 04:00:06;;;;;;;10.85;2.75;;;;;;;;;;5092696;28;20020;-70
2023/05/30 04:02:32;;;;;;;13.65;3.15;;;;;;;;;;5092410;28;20023;-71
2023/05/30 04:04:57;;;;;;;11.18;2.80;;;;;;;;;;5092491;28;20119;-69
2023/05/30 04:07:24;;;;;;;11.70;2.47;;;;;;;;;;5092331;28;20020;-72
2023/05/30 04:09:51;;;;;;;9.00;2.40;;;;;;;;;;5092235;28;20475;-68
2023/05/30 04:12:16;;;;;;;14.40;3.63;;;;;;;;;;5092511;28;20046;-71
2023/05/30 04:14:42;;;;;;;6.10;2.20;;;;;;;;;;5092140;28;20369;-72
2023/05/30 04:17:07;;;;;;;11.00;2.30;;;;;;;;;;5092328;28;20073;-72
2023/05/30 04:19:32;;;;;;;10.50;2.00;;;;;;;;;;5092351;28;20024;-70
2023/05/30 04:21:58;;;;;;;4.70;2.05;;;;;;;;;;5092309;28;20031;-67
2023/05/30 04:24:23;;;;;;;11.20;2.63;;;;;;;;;;5092122;28;20039;-71
2023/05/30 04:26:50;;;;;;;8.02;2.10;;;;;;;;;;5092084;28;20039;-64
2023/05/30 04:29:20;;;;;;;7.95;2.20;;;;;;;;;;5092327;28;20023;-72
2023/05/30 04:31:46;;;;;;;4.15;1.90;;;;;;;;;;5092290;28;20050;-68
2023/05/30 04:34:11;;;;;;;7.22;2.42;;;;;;;;;;5092029;28;20037;-70
2023/05/30 04:36:37;;;;;;;8.82;2.10;;;;;;;;;;5091959;28;20056;-72
2023/05/30 04:39:02;;;;;;;8.65;2.80;;;;;;;;;;5101507;28;20070;-71
2023/05/30 04:41:28;;;;;;;9.10;2.17;;;;;;;;;;5116793;28;20464;-72
2023/05/30 04:44:00;;;;;;;6.95;1.95;;;;;;;;;;5116673;28;20386;-72
2023/05/30 04:46:27;;;;;;;5.35;2.25;;;;;;;;;;5116389;28;20122;-71
2023/05/30 04:48:55;;;;;;;8.23;2.20;;;;;;;;;;5095488;28;20046;-67
2023/05/30 04:51:24;;;;;;;7.47;2.20;;;;;;;;;;5095666;28;20038;-70
2023/05/30 04:53:50;;;;;;;12.80;3.20;;;;;;;;;;5095873;28;20111;-68
2023/05/30 04:56:15;;;;;;;15.77;2.88;;;;;;;;;;5095374;28;20020;-64
2023/05/30 04:58:44;;;;;;;9.68;2.40;;;;;;;;;;5095669;28;20035;-68
2023/05/30 05:01:10;;;;;;;6.03;1.75;;;;;;;;;;5094040;28;20102;-62
2023/05/30 05:03:38;;;;;;;7.82;2.22;;;;;;;;;;5095806;28;20113;-64
2023/05/30 05:06:06;;;;;;;8.85;2.13;;;;;;;;;;5095236;28;20327;-65
2023/05/30 05:08:33;;;;;;;9.07;2.30;;;;;;;;;;5093631;28;20078;-64
2023/05/30 05:11:00;;;;;;;10.23;2.20;;;;;;;;;;5093668;28;20031;-71
2023/05/30 05:13:25;;;;;;;6.75;2.10;;;;;;;;;;5094279;28;20036;-63
2023/05/30 05:15:51;;;;;;;6.40;2.00;;;;;;;;;;5108716;28;20153;-63
2023/05/30 05:18:17;;;;;;;6.40;2.33;;;;;;;;;;5103265;28;20673;-72
2023/05/30 05:20:42;;;;;;;9.20;2.42;;;;;;;;;;5095128;28;20027;-65
2023/05/30 05:23:08;;;;;;;6.85;1.70;;;;;;;;;;5095163;28;20024;-69
2023/05/30 05:25:34;;;;;;;10.02;2.58;;;;;;;;;;5095389;28;20027;-68
2023/05/30 05:27:59;;;;;;;11.00;2.35;;;;;;;;;;5094892;28;20106;-71
2023/05/30 05:30:25;;;;;;;5.63;1.92;;;;;;;;;;5095172;28;20422;-70
2023/05/30 05:32:51;;;;;;;6.60;2.03;;;;;;;;;;5095224;28;20036;-64
2023/05/30 05:35:16;;;;;;;8.00;2.10;;;;;;;;;;5095120;28;20051;-64
2023/05/30 05:37:42;;;;;;;14.05;2.22;;;;;;;;;;5094908;28;20055;-70
2023/05/30 05:40:08;;;;;;;6.40;1.88;;;;;;;;;;5112254;28;20089;-62
2023/05/30 05:42:34;;;;;;;5.55;2.00;;;;;;;;;;5115482;28;20038;-64
2023/05/30 05:45:00;;;;;;;6.20;1.70;;;;;;;;;;5115316;28;20471;-67
2023/05/30 05:47:26;;;;;;;5.13;1.80;;;;;;;;;;5115259;28;20481;-72
2023/05/30 05:49:51;;;;;;;5.20;1.90;;;;;;;;;;5102764;28;20028;-69
2023/05/30 05:52:17;;;;;;;13.52;2.15;;;;;;;;;;5094844;28;20020;-70
2023/05/30 05:54:42;;;;;;;7.80;2.22;;;;;;;;;;5094806;28;20363;-71
2023/05/30 05:57:08;;;;;;;13.50;4.88;;;;;;;;;;5094717;28;20056;-64
2023/05/30 05:59:34;;;;;;;14.32;4.82;;;;;;;;;;5094750;28;20021;-72
2023/05/30 06:01:59;;;;;;;6.40;2.95;;;;;;;;;;5094801;28;20023;-63
2023/05/30 06:04:25;;;;;;;7.68;2.53;;;;;;;;;;5094319;28;20032;-67
2023/05/30 06:06:51;;;;;;;11.00;2.67;;;;;;;;;;5094609;28;20103;-66
2023/05/30 06:09:17;;;;;;;6.47;2.45;;;;;;;;;;5094604;28;20024;-67
2023/05/30 06:11:42;;;;;;;5.90;1.98;;;;;;;;;;5094668;28;20069;-73
2023/05/30 06:14:08;;;;;;;7.68;1.83;;;;;;;;;;5094423;28;20537;-67
2023/05/30 06:16:33;;;;;;;5.75;2.05;;;;;;;;;;5094165;28;20024;-72
2023/05/30 06:18:58;;;;;;;9.98;2.55;;;;;;;;;;5094258;28;20115;-71
2023/05/30 06:21:24;;;;;;;5.53;1.98;;;;;;;;;;5094605;28;20056;-71
2023/05/30 06:23:49;;;;;;;8.93;2.20;;;;;;;;;;5094289;28;20445;-71
2023/05/30 06:26:15;;;;;;;3.80;1.67;;;;;;;;;;5094148;28;20059;-64
2023/05/30 06:28:41;;;;;;;6.18;1.63;;;;;;;;;;5093971;28;20039;-72
2023/05/30 06:31:06;;;;;;;11.75;1.92;;;;;;;;;;5094204;28;20484;-69
2023/05/30 06:33:31;;;;;;;3.78;1.30;;;;;;;;;;5093896;28;20032;-72
2023/05/30 06:35:57;;;;;;;4.88;1.33;;;;;;;;;;5094097;28;20023;-71
2023/05/30 06:38:23;;;;;;;5.47;1.70;;;;;;;;;;5096343;28;20027;-72
2023/05/30 06:40:48;;;;;;;6.22;1.83;;;;;;;;;;5114415;28;20015;-70
2023/05/30 06:43:14;;;;;;;5.20;2.67;;;;;;;;;;5114391;28;20035;-67
2023/05/30 06:45:39;;;;;;;3.70;1.80;;;;;;;;;;5114218;27;20063;-72
2023/05/30 06:48:05;;;;;;;7.30;1.70;;;;;;;;;;5113961;28;20043;-71
2023/05/30 06:50:30;;;;;;;5.68;1.67;;;;;;;;;;5096248;28;20073;-69
2023/05/30 06:52:56;;;;;;;6.28;1.60;;;;;;;;;;5093644;28;20068;-73
2023/05/30 06:55:21;;;;;;;5.70;1.55;;;;;;;;;;5093971;28;20020;-73
2023/05/30 06:57:48;;;;;;;4.90;1.85;;;;;;;;;;5093832;28;20062;-74
2023/05/30 07:00:17;;;;;;;4.22;1.60;;;;;;;;;;5093778;28;20031;-67
2023/05/30 07:02:42;;;;;;;9.68;1.75;;;;;;;;;;5092907;28;20024;-72
2023/05/30 07:05:08;;;;;;;5.75;1.60;;;;;;;;;;5093595;28;20028;-73
2023/05/30 07:07:34;;;;;;;5.82;1.50;;;;;;;;;;5093574;28;20472;-61
2023/05/30 07:09:59;;;;;;;5.65;1.83;;;;;;;;;;5093481;28;20115;-70
2023/05/30 07:12:25;;;;;;;5.68;1.50;;;;;;;;;;5093073;28;20090;-67
2023/05/30 07:14:50;;;;;;;7.38;1.98;;;;;;;;;;5093279;28;20028;-72
2023/05/30 07:17:16;;;;;;;7.43;1.83;;;;;;;;;;5093119;28;20059;-73
2023/05/30 07:19:41;;;;;;;10.02;1.83;;;;;;;;;;5093277;28;20169;-61
2023/05/30 07:22:06;;;;;;;8.98;1.88;;;;;;;;;;5093301;28;20024;-65
2023/05/30 07:24:32;;;;;;;4.07;1.73;;;;;;;;;;5093037;28;20346;-64
2023/05/30 07:26:57;;;;;;;10.20;2.53;;;;;;;;;;5092861;28;20059;-71
2023/05/30 07:29:23;;;;;;;6.28;1.70;;;;;;;;;;5093245;28;20099;-72
2023/05/30 07:31:48;;;;;;;4.70;1.92;;;;;;;;;;5092954;28;20024;-64
2023/05/30 07:34:13;;;;;;;6.03;1.85;;;;;;;;;;5092985;28;20030;-61
2023/05/30 07:36:39;;;;;;;10.85;2.03;;;;;;;;;;5092495;28;20035;-63
2023/05/30 07:39:05;;;;;;;4.93;1.88;;;;;;;;;;5101368;28;20028;-71
2023/05/30 07:41:30;;;;;;;4.63;1.58;;;;;;;;;;5113187;28;20092;-62
2023/05/30 07:43:55;;;;;;;5.38;1.67;;;;;;;;;;5113268;28;20423;-61
2023/05/30 07:46:22;;;;;;;4.13;1.70;;;;;;;;;;5111237;28;20066;-62
2023/05/30 07:48:47;;;;;;;10.23;2.03;;;;;;;;;;5109721;28;20024;-61
2023/05/30 07:51:13;;;;;;;4.75;2.20;;;;;;;;;;5092717;28;20020;-61
2023/05/30 07:53:38;;;;;;;8.05;1.80;;;;;;;;;;5092556;28;20077;-73
2023/05/30 07:56:04;;;;;;;5.72;1.90;;;;;;;;;;5092685;28;20488;-68
2023/05/30 07:58:30;;;;;;;6.43;2.28;;;;;;;;;;5092461;28;20031;-64
2023/05/30 08:00:55;;;;;;;5.25;1.88;;;;;;;;;;5090966;28;20035;-71
2023/05/30 08:03:21;;;;;;;4.05;1.67;;;;;;;;;;5092508;28;20495;-63
2023/05/30 08:05:50;;;;;;;5.10;1.92;;;;;;;;;;5091073;28;20024;-62
2023/05/30 08:08:16;;;;;;;7.80;1.60;;;;;;;;;;5092477;28;20036;-73
2023/05/30 08:10:41;;;;;;;5.35;2.05;;;;;;;;;;5092260;28;20140;-62
2023/05/30 08:13:07;;;;;;;6.10;1.70;;;;;;;;;;5091833;28;20373;-63
2023/05/30 08:15:32;;;;;;;4.43;1.60;;;;;;;;;;5091918;28;20027;-61
2023/05/30 08:18:00;;;;;;;5.57;1.73;;;;;;;;;;5091153;28;20031;-61
2023/05/30 08:20:25;;;;;;;4.35;1.73;;;;;;;;;;5092293;28;20496;-72
2023/05/30 08:22:51;;;;;;;3.38;1.50;;;;;;;;;;5092359;28;20043;-70
2023/05/30 08:25:21;;;;;;;5.93;1.80;;;;;;;;;;5092344;28;20028;-67
2023/05/30 08:27:47;;;;;;;3.88;1.70;;;;;;;;;;5092383;28;20048;-69
2023/05/30 08:30:13;;;;;;;5.35;1.52;;;;;;;;;;5092285;28;20039;-68
2023/05/30 08:32:40;;;;;;;5.13;1.65;;;;;;;;;;5091915;28;20368;-63
2023/05/30 08:35:05;;;;;;;5.85;1.85;;;;;;;;;;5092190;28;20068;-67
2023/05/30 08:37:31;;;;;;;4.68;1.60;;;;;;;;;;5092259;28;20028;-75
2023/05/30 08:39:56;;;;;;;6.07;1.73;;;;;;;;;;5107815;28;20024;-74
2023/05/30 08:42:23;;;;;;;6.25;2.00;;;;;;;;;;5112467;28;20031;-73
2023/05/30 08:44:48;;;;;;;8.32;1.73;;;;;;;;;;5112334;28;20477;-71
2023/05/30 08:47:16;;;;;;;6.68;2.05;;;;;;;;;;5112182;28;20051;-74
2023/05/30 08:49:43;;;;;;;5.57;1.98;;;;;;;;;;5101591;28;20113;-73
2023/05/30 08:52:13;;;;;;;8.60;1.83;;;;;;;;;;5092092;28;20199;-73
2023/05/30 08:54:46;;;;;;;;;;;;;;;;;;5092415;28;20143;-74
2023/05/30 08:57:17;;;;;;;9.93;1.88;;;;;;;;;;5092029;28;19965;-71
2023/05/30 08:59:44;;;;;;;6.75;1.73;;;;;;;;;;5091868;28;20016;-73
2023/05/30 09:02:11;;;;;;;5.90;1.75;;;;;;;;;;5092109;28;20085;-73
2023/05/30 09:04:37;;;;;;;4.78;1.80;;;;;;;;;;5091879;28;20024;-74
2023/05/30 09:07:03;;;;;;;5.20;1.80;;;;;;;;;;5091793;28;20024;-71
2023/05/30 09:09:32;;;;;;;3.13;1.60;;;;;;;;;;5092039;28;20523;-72
2023/05/30 09:11:58;;;;;;;;;;;;;;;;;;5092149;28;20028;-75
2023/05/30 09:14:23;;;;;;;8.35;1.88;;;;;;;;;;5091480;28;19957;-69
2023/05/30 09:16:49;;;;;;;7.07;2.40;;;;;;;;;;5091684;28;20081;-67
2023/05/30 09:19:14;;;;;;;5.85;1.67;;;;;;;;;;5091861;28;20466;-72
2023/05/30 09:21:40;;;;;;;7.63;2.00;;;;;;;;;;5091796;28;20032;-67
2023/05/30 09:24:06;;;;;;;5.93;1.98;;;;;;;;;;5090527;28;20036;-62
2023/05/30 09:26:35;;;;;;;7.13;1.90;;;;;;;;;;5094986;28;20069;-73
2023/05/30 09:29:12;;;;;;;6.05;1.85;;;;;;;;;;5074822;28;20039;-62
2023/05/30 09:31:38;;;;;;;6.90;2.45;;;;;;;;;;5073310;28;20370;-66
2023/05/30 09:34:05;;;;;;;7.05;2.40;;;;;;;;;;5074881;28;20085;-73
2023/05/30 09:36:31;;;;;;;11.52;2.35;;;;;;;;;;5078382;28;20016;-73
2023/05/30 09:39:02;;;;;;;7.75;2.20;;;;;;;;;;5102556;28;20050;-74
2023/05/30 09:41:28;;;;;;;14.45;3.08;;;;;;;;;;5115662;28;20023;-75
2023/05/30 09:43:55;;;;;;;7.90;2.13;;;;;;;;;;5115438;28;20473;-74
2023/05/30 09:46:30;;;;;;;4.57;1.70;;;;;;;;;;5113816;28;20142;-74
2023/05/30 09:48:57;;;;;;;10.85;2.20;;;;;;;;;;5111110;28;20024;-74
2023/05/30 09:51:25;;;;;;;5.10;2.10;;;;;;;;;;5094984;28;20050;-74
2023/05/30 09:54:05;;;;;;;11.25;2.38;;;;;;;;;;5095049;28;20083;-73
2023/05/30 09:56:34;;;;;;;4.80;1.98;;;;;;;;;;5094754;28;20055;-74
2023/05/30 09:59:06;;;;;;;6.68;2.22;;;;;;;;;;5094765;28;20150;-75
2023/05/30 10:01:48;;;;;;;5.10;1.85;;;;;;;;;;5094785;28;20028;-74
2023/05/30 10:04:17;;;;;;;5.68;1.83;;;;;;;;;;5094656;28;20020;-73
2023/05/30 10:06:51;;;;;;;7.13;2.17;;;;;;;;;;5094722;28;20127;-71
2023/05/30 10:09:20;;;;;;;5.32;1.90;;;;;;;;;;5094771;28;20094;-72
2023/05/30 10:11:46;;;;;;;5.10;1.85;;;;;;;;;;5094398;28;20024;-73
2023/05/30 10:14:13;;;;;;;8.05;1.98;;;;;;;;;;5094446;28;20050;-74
2023/05/30 10:16:43;;;;;;;5.55;1.83;;;;;;;;;;5094115;28;20035;-73
2023/05/30 10:19:13;;;;;;;4.25;1.80;;;;;;;;;;5094493;28;20020;-72
2023/05/30 10:21:39;;;;;;;7.95;1.70;;;;;;;;;;5074291;28;20028;-73
2023/05/30 10:24:09;;;;;;;6.53;1.58;;;;;;;;;;5074294;28;20167;-74
2023/05/30 10:26:36;;;;;;;4.63;1.58;;;;;;;;;;5073936;28;20029;-71
2023/05/30 10:29:07;;;;;;;7.18;1.92;;;;;;;;;;5094163;28;20028;-74
2023/05/30 10:31:34;;;;;;;6.05;1.95;;;;;;;;;;5094073;28;20024;-72
2023/05/30 10:34:06;;;;;;;4.20;1.67;;;;;;;;;;5094019;28;20115;-74
2023/05/30 10:36:34;;;;;;;5.97;1.65;;;;;;;;;;5093084;28;20020;-74
2023/05/30 10:39:04;;;;;;;6.38;1.83;;;;;;;;;;5101682;28;20019;-71
2023/05/30 10:41:40;;;;;;;4.70;1.67;;;;;;;;;;5114185;28;20107;-75
2023/05/30 10:44:27;;;;;;;4.78;2.00;;;;;;;;;;5114482;28;20349;-74
2023/05/30 10:47:05;;;;;;;8.10;1.88;;;;;;;;;;5113948;28;20047;-74
2023/05/30 10:49:31;;;;;;;7.35;1.95;;;;;;;;;;5105065;28;20054;-69
2023/05/30 10:52:09;;;;;;;4.75;1.65;;;;;;;;;;5093809;28;20043;-70
2023/05/30 10:54:37;;;;;;;14.13;1.83;;;;;;;;;;5093406;28;20032;-69
2023/05/30 10:57:26;;;;;;;4.55;1.58;;;;;;;;;;5093579;28;20024;-68
2023/05/30 11:00:16;;;;;;;5.77;1.90;;;;;;;;;;5093631;28;20020;-71
2023/05/30 11:02:43;;;;;;;5.28;1.80;;;;;;;;;;5092498;28;20264;-61
2023/05/30 11:05:10;;;;;;;4.13;1.45;;;;;;;;;;5093447;28;20552;-68
2023/05/30 11:07:37;;;;;;;7.35;1.77;;;;;;;;;;5093567;28;20111;-70
2023/05/30 11:10:07;;;;;;;8.25;1.92;;;;;;;;;;5093120;28;20031;-68
2023/05/30 11:12:40;;;;;;;7.97;1.80;;;;;;;;;;5093087;28;20020;-68
2023/05/30 11:15:06;;;;;;;7.40;1.70;;;;;;;;;;5093171;28;20046;-72
2023/05/30 11:17:36;;;;;;;4.40;1.77;;;;;;;;;;5093357;28;20111;-72
2023/05/30 11:20:14;;;;;;;7.38;1.80;;;;;;;;;;5093219;28;20107;-65
2023/05/30 11:22:41;;;;;;;5.45;1.45;;;;;;;;;;5093003;28;20127;-64
2023/05/30 11:25:26;;;;;;;6.10;1.60;;;;;;;;;;5092474;28;20020;-71
2023/05/30 11:28:03;;;;;;;3.13;1.30;;;;;;;;;;5093099;28;20089;-67
2023/05/30 11:30:37;;;;;;;6.13;1.60;;;;;;;;;;5092788;28;20024;-62
2023/05/30 11:33:04;;;;;;;5.65;1.50;;;;;;;;;;5093070;28;20112;-72
2023/05/30 11:35:31;;;;;;;5.15;1.60;;;;;;;;;;5092915;28;20136;-66
2023/05/30 11:37:57;;;;;;;3.67;1.65;;;;;;;;;;5092569;28;20039;-74
2023/05/30 11:40:26;;;;;;;4.07;1.42;;;;;;;;;;5111902;28;20032;-73
2023/05/30 11:42:53;;;;;;;4.35;1.45;;;;;;;;;;5113210;28;20035;-68
2023/05/30 11:45:29;;;;;;;2.83;1.30;;;;;;;;;;5113181;28;20035;-71
2023/05/30 11:48:10;;;;;;;5.25;1.63;;;;;;;;;;5113054;28;20123;-72
2023/05/30 11:50:40;;;;;;;5.85;1.45;;;;;;;;;;5094591;28;20489;-74
2023/05/30 11:53:17;;;;;;;5.43;1.50;;;;;;;;;;5092333;28;20028;-71
2023/05/30 11:55:49;;;;;;;4.00;1.40;;;;;;;;;;5092643;28;20031;-67
2023/05/30 11:58:18;;;;;;;4.20;1.52;;;;;;;;;;5092741;28;20020;-68
2023/05/30 12:00:46;;;;;;;3.33;1.20;;;;;;;;;;5092393;28;20032;-72
2023/05/30 12:03:16;;;;;;;5.07;1.50;;;;;;;;;;5092538;28;20032;-71
2023/05/30 12:05:41;;;;;;;5.30;1.60;;;;;;;;;;5092544;28;20029;-71
2023/05/30 12:08:07;;;;;;;3.50;1.42;;;;;;;;;;5092302;28;20043;-69
2023/05/30 12:10:32;;;;;;;5.00;1.50;;;;;;;;;;5092258;28;20085;-71
2023/05/30 12:13:00;;;;;;;5.72;1.38;;;;;;;;;;5091015;28;20050;-71
2023/05/30 12:15:26;;;;;;;6.70;1.48;;;;;;;;;;5092347;28;20024;-72
2023/05/30 12:17:54;;;;;;;2.85;1.25;;;;;;;;;;5092459;28;20027;-71
2023/05/30 12:20:20;;;;;;;8.02;1.50;;;;;;;;;;5092359;28;20427;-71
2023/05/30 12:22:47;;;;;;;3.58;1.58;;;;;;;;;;5088739;28;20093;-69
2023/05/30 12:25:13;;;;;;;5.15;1.20;;;;;;;;;;5080820;28;20020;-74
2023/05/30 12:27:49;;;;;;;4.38;1.40;;;;;;;;;;5081921;28;20024;-70
2023/05/30 12:30:16;;;;;;;6.57;1.30;;;;;;;;;;5092181;28;20416;-63
2023/05/30 12:32:42;;;;;;;3.70;1.40;;;;;;;;;;5075404;28;20052;-70
2023/05/30 12:35:08;;;;;;;2.40;1.10;;;;;;;;;;5072092;28;20048;-71
2023/05/30 12:37:34;;;;;;;3.03;1.10;;;;;;;;;;5083792;28;20024;-71
2023/05/30 12:40:01;;;;;;;9.40;2.30;;;;;;;;;;5101901;28;20077;-69
2023/05/30 12:42:28;;;;;;;3.42;1.30;;;;;;;;;;5091918;28;20407;-66
2023/05/30 12:44:58;;;;;;;2.88;1.30;;;;;;;;;;5091978;28;20028;-71
2023/05/30 12:47:26;;;;;;;4.28;1.38;;;;;;;;;;5091870;28;20055;-70
2023/05/30 12:49:51;;;;;;;5.95;1.30;;;;;;;;;;5091732;28;20043;-70
2023/05/30 12:52:25;;;;;;;4.90;1.48;;;;;;;;;;5091428;28;20028;-64
2023/05/30 12:54:51;;;;;;;4.60;1.30;;;;;;;;;;5091666;28;20024;-70
2023/05/30 12:57:25;;;;;;;3.30;1.50;;;;;;;;;;5091776;28;20020;-70
2023/05/30 12:59:53;;;;;;;3.38;1.00;;;;;;;;;;5092932;28;20020;-71
2023/05/30 13:02:20;;;;;;;8.80;1.73;;;;;;;;;;5095622;28;20059;-69
2023/05/30 13:04:46;;;;;;;4.30;1.50;;;;;;;;;;5095681;28;20486;-60
2023/05/30 13:07:12;;;;;;;5.43;1.58;;;;;;;;;;5094569;28;20475;-68
2023/05/30 13:09:39;;;;;;;6.60;1.60;;;;;;;;;;5095658;28;20032;-68
2023/05/30 13:12:08;;;;;;;12.05;2.30;;;;;;;;;;5095739;28;20024;-71
2023/05/30 13:14:35;;;;;;;3.75;1.50;;;;;;;;;;5095586;28;20039;-70
2023/05/30 13:17:00;;;;;;;4.78;1.58;;;;;;;;;;5095634;28;20111;-70
2023/05/30 13:19:26;;;;;;;6.63;1.63;;;;;;;;;;5095564;28;20120;-71
2023/05/30 13:21:51;;;;;;;6.25;1.50;;;;;;;;;;5095599;28;20038;-71
2023/05/30 13:24:17;;;;;;;6.60;1.60;;;;;;;;;;5095392;28;20032;-68
2023/05/30 13:26:43;;;;;;;5.88;1.70;;;;;;;;;;5095295;28;20032;-71
2023/05/30 13:29:08;;;;;;;6.28;1.90;;;;;;;;;;5095416;28;20488;-69
2023/05/30 13:31:34;;;;;;;5.15;1.83;;;;;;;;;;5094846;28;20030;-71
2023/05/30 13:34:00;;;;;;;3.00;1.40;;;;;;;;;;5095321;28;20426;-70
2023/05/30 13:36:26;;;;;;;6.60;1.65;;;;;;;;;;5099466;28;20023;-70
2023/05/30 13:38:52;;;;;;;7.75;1.88;;;;;;;;;;5101560;28;20031;-69
2023/05/30 13:41:19;;;;;;;3.58;1.58;;;;;;;;;;5111474;28;20118;-67
2023/05/30 13:43:44;;;;;;;6.07;1.83;;;;;;;;;;5095188;28;20028;-70
2023/05/30 13:46:10;;;;;;;5.45;1.80;;;;;;;;;;5094987;28;20103;-72
2023/05/30 13:48:35;;;;;;;7.07;1.80;;;;;;;;;;5096399;28;20035;-70
2023/05/30 13:51:01;;;;;;;7.97;2.17;;;;;;;;;;5094810;28;20051;-69
2023/05/30 13:53:26;;;;;;;5.07;2.00;;;;;;;;;;5093415;28;20032;-71
2023/05/30 13:55:52;;;;;;;4.88;1.67;;;;;;;;;;5095014;28;20027;-71
2023/05/30 13:58:17;;;;;;;3.83;1.48;;;;;;;;;;5094845;28;20109;-71
2023/05/30 14:00:42;;;;;;;4.50;1.50;;;;;;;;;;5095093;28;20035;-70
2023/05/30 14:03:08;;;;;;;11.45;1.83;;;;;;;;;;5113992;28;20024;-71
2023/05/30 14:05:35;;;;;;;6.55;1.52;;;;;;;;;;5111987;28;20509;-70
2023/05/30 14:08:01;;;;;;;3.67;1.35;;;;;;;;;;5101603;28;20021;-69
2023/05/30 14:10:26;;;;;;;5.90;1.40;;;;;;;;;;5094634;28;20028;-68
2023/05/30 14:12:54;;;;;;;4.22;1.33;;;;;;;;;;5093660;28;20422;-71
2023/05/30 14:15:20;;;;;;;6.65;1.55;;;;;;;;;;5093225;28;20028;-70
2023/05/30 14:17:46;;;;;;;3.08;1.40;;;;;;;;;;5094292;28;20122;-70
2023/05/30 14:20:12;;;;;;;5.68;1.85;;;;;;;;;;5094404;28;20492;-70
2023/05/30 14:22:38;;;;;;;8.38;2.03;;;;;;;;;;5094246;28;20040;-71
2023/05/30 14:25:04;;;;;;;5.10;1.75;;;;;;;;;;5094277;28;20024;-71
2023/05/30 14:27:31;;;;;;;3.58;1.48;;;;;;;;;;5094241;28;20021;-69
2023/05/30 14:29:57;;;;;;;3.45;1.50;;;;;;;;;;5094321;28;20050;-71
2023/05/30 14:32:23;;;;;;;10.20;2.08;;;;;;;;;;5093904;28;20460;-71
2023/05/30 14:34:48;;;;;;;5.68;1.60;;;;;;;;;;5094166;28;20148;-71
2023/05/30 14:37:14;;;;;;;7.32;1.50;;;;;;;;;;5093924;28;20144;-71
2023/05/30 14:39:39;;;;;;;6.97;1.50;;;;;;;;;;5107165;28;20396;-71
2023/05/30 14:42:05;;;;;;;4.75;1.77;;;;;;;;;;5101682;28;20109;-71
2023/05/30 14:44:30;;;;;;;3.97;1.42;;;;;;;;;;5094087;28;20094;-71